createdAt,value
2023-03-17T00:00:53.088Z,5.92
2023-03-17T00:03:29.736Z,5.89
2023-03-17T00:06:00.922Z,5.79
2023-03-17T00:08:33.938Z,5.82
2023-03-17T00:11:03.729Z,5.75
2023-03-17T00:13:33.164Z,5.71
2023-03-17T00:16:05.719Z,5.67
2023-03-17T00:18:35.933Z,5.63
2023-03-17T00:21:06.309Z,5.61
2023-03-17T00:23:36.242Z,5.62
2023-03-17T00:26:05.307Z,5.66
2023-03-17T00:28:34.656Z,5.71
2023-03-17T00:31:17.145Z,5.75
2023-03-17T00:33:47.014Z,5.76
2023-03-17T00:36:29.867Z,5.83
2023-03-17T00:38:59.905Z,5.87
2023-03-17T00:41:29.892Z,5.92
2023-03-17T00:43:59.218Z,5.96
2023-03-17T00:46:36.233Z,5.97
2023-03-17T00:49:21.493Z,5.96
2023-03-17T00:51:52.378Z,5.93
2023-03-17T00:54:21.685Z,5.97
2023-03-17T00:56:52.669Z,6.01
2023-03-17T00:59:39.314Z,6.02
2023-03-17T01:02:14.162Z,5.98
2023-03-17T01:04:49.994Z,5.98
2023-03-17T01:07:23.017Z,5.89
2023-03-17T01:09:53.095Z,5.90
2023-03-17T01:12:21.986Z,5.92
2023-03-17T01:14:50.715Z,5.94
2023-03-17T01:17:22.466Z,5.97
2023-03-17T01:19:51.363Z,5.96
2023-03-17T01:22:20.908Z,5.81
2023-03-17T01:24:49.739Z,5.78
2023-03-17T01:27:22.433Z,5.72
2023-03-17T01:29:55.673Z,5.60
2023-03-17T01:32:24.913Z,5.52
2023-03-17T01:34:54.110Z,5.48
2023-03-17T01:37:23.120Z,5.44
2023-03-17T01:39:52.925Z,5.40
2023-03-17T01:42:22.100Z,5.35
2023-03-17T01:45:04.299Z,5.30
2023-03-17T01:47:34.571Z,5.26
2023-03-17T01:50:09.459Z,5.25
2023-03-17T01:52:40.474Z,5.18
2023-03-17T01:55:17.692Z,5.15
2023-03-17T01:57:56.941Z,5.12
2023-03-17T02:00:26.924Z,5.09
2023-03-17T02:02:57.557Z,5.09
2023-03-17T02:05:30.185Z,5.08
2023-03-17T02:08:00.498Z,5.02
2023-03-17T02:10:30.566Z,4.98
2023-03-17T02:13:06.351Z,4.93
2023-03-17T02:15:44.797Z,4.80
2023-03-17T02:18:14.080Z,4.68
2023-03-17T02:20:49.362Z,4.67
2023-03-17T02:23:24.009Z,4.65
2023-03-17T02:25:54.764Z,4.61
2023-03-17T02:28:28.735Z,4.58
2023-03-17T02:30:58.325Z,4.65
2023-03-17T02:33:28.134Z,4.74
2023-03-17T02:35:57.421Z,4.75
2023-03-17T02:38:27.422Z,4.67
2023-03-17T02:40:56.367Z,4.60
2023-03-17T02:43:25.136Z,4.55
2023-03-17T02:45:54.029Z,4.48
2023-03-17T02:48:23.887Z,4.44
2023-03-17T02:50:54.981Z,4.44
2023-03-17T02:53:24.549Z,4.42
2023-03-17T02:55:53.637Z,4.47
2023-03-17T02:58:22.725Z,4.38
2023-03-17T03:00:52.170Z,4.18
2023-03-17T03:03:20.968Z,3.99
2023-03-17T03:05:49.863Z,3.96
2023-03-17T03:08:18.716Z,3.99
2023-03-17T03:10:47.520Z,4.02
2023-03-17T03:13:16.884Z,4.04
2023-03-17T03:15:45.764Z,4.05
2023-03-17T03:18:14.763Z,4.10
2023-03-17T03:20:45.714Z,4.15
2023-03-17T03:23:16.427Z,4.16
2023-03-17T03:25:45.284Z,4.19
2023-03-17T03:28:15.238Z,4.19
2023-03-17T03:30:46.077Z,4.16
2023-03-17T03:33:16.464Z,4.14
2023-03-17T03:35:45.573Z,4.16
2023-03-17T03:38:14.873Z,4.18
2023-03-17T03:40:43.779Z,4.25
2023-03-17T03:43:23.066Z,4.30
2023-03-17T03:45:53.369Z,4.24
2023-03-17T03:48:22.858Z,4.23
2023-03-17T03:50:51.842Z,4.22
2023-03-17T03:53:20.607Z,4.22
2023-03-17T03:55:49.412Z,4.25
2023-03-17T03:58:18.288Z,4.25
2023-03-17T04:00:47.633Z,4.24
2023-03-17T04:03:16.947Z,4.21
2023-03-17T04:05:45.825Z,4.18
2023-03-17T04:08:14.850Z,4.04
2023-03-17T04:10:44.155Z,3.99
2023-03-17T04:13:14.633Z,3.93
2023-03-17T04:15:43.786Z,3.97
2023-03-17T04:18:13.667Z,4.01
2023-03-17T04:20:43.031Z,4.01
2023-03-17T04:23:13.452Z,3.99
2023-03-17T04:25:42.803Z,3.94
2023-03-17T04:28:12.556Z,3.85
2023-03-17T04:30:42.117Z,3.82
2023-03-17T04:33:12.014Z,3.79
2023-03-17T04:35:41.322Z,3.77
2023-03-17T04:38:13.792Z,3.78
2023-03-17T04:40:43.359Z,3.85
2023-03-17T04:43:12.493Z,3.88
2023-03-17T04:45:41.535Z,3.83
2023-03-17T04:48:10.358Z,3.83
2023-03-17T04:50:39.658Z,3.84
2023-03-17T04:53:09.661Z,3.78
2023-03-17T04:55:39.081Z,3.69
2023-03-17T04:58:09.234Z,3.67
2023-03-17T05:00:40.073Z,3.69
2023-03-17T05:03:23.894Z,3.72
2023-03-17T05:05:55.951Z,3.63
2023-03-17T05:08:26.295Z,3.64
2023-03-17T05:10:59.480Z,3.62
2023-03-17T05:13:28.365Z,3.48
2023-03-17T05:15:59.774Z,3.41
2023-03-17T05:18:29.175Z,3.44
2023-03-17T05:20:58.190Z,3.54
2023-03-17T05:23:27.539Z,3.48
2023-03-17T05:25:57.001Z,3.39
2023-03-17T05:28:27.322Z,3.29
2023-03-17T05:30:57.258Z,3.20
2023-03-17T05:33:27.091Z,3.15
2023-03-17T05:35:56.678Z,3.17
2023-03-17T05:38:26.397Z,3.24
2023-03-17T05:40:55.316Z,3.27
2023-03-17T05:43:24.437Z,3.29
2023-03-17T05:45:53.597Z,3.32
2023-03-17T05:48:23.784Z,3.33
2023-03-17T05:50:53.835Z,3.30
2023-03-17T05:53:24.018Z,3.45
2023-03-17T05:55:53.722Z,4.20
2023-03-17T05:58:22.777Z,4.98
2023-03-17T06:00:52.394Z,5.59
2023-03-17T06:03:22.944Z,6.24
2023-03-17T06:05:52.340Z,6.82
2023-03-17T06:08:21.995Z,7.33
2023-03-17T06:10:51.937Z,7.77
2023-03-17T06:13:21.215Z,8.19
2023-03-17T06:15:55.438Z,8.61
2023-03-17T06:18:24.861Z,9.01
2023-03-17T06:20:54.102Z,9.29
2023-03-17T06:23:24.399Z,9.77
2023-03-17T06:25:53.626Z,10.29
2023-03-17T06:28:22.848Z,11.03
2023-03-17T06:30:51.977Z,11.67
2023-03-17T06:33:21.142Z,12.18
2023-03-17T06:35:50.093Z,12.72
2023-03-17T06:38:19.119Z,13.28
2023-03-17T06:40:48.349Z,13.75
2023-03-17T06:43:19.958Z,13.94
2023-03-17T06:45:49.327Z,14.16
2023-03-17T06:48:18.750Z,14.48
2023-03-17T06:50:48.387Z,14.57
2023-03-17T06:53:17.934Z,14.69
2023-03-17T06:55:47.586Z,15.00
2023-03-17T06:58:17.731Z,15.21
2023-03-17T07:00:49.246Z,15.53
2023-03-17T07:03:18.563Z,15.90
2023-03-17T07:05:48.368Z,16.34
2023-03-17T07:08:18.429Z,16.57
2023-03-17T07:10:47.492Z,16.86
2023-03-17T07:13:16.688Z,17.23
2023-03-17T07:15:46.376Z,17.69
2023-03-17T07:18:15.424Z,18.15
2023-03-17T07:20:44.525Z,18.52
2023-03-17T07:23:19.538Z,18.86
2023-03-17T07:25:49.341Z,19.33
2023-03-17T07:28:19.646Z,19.49
2023-03-17T07:30:49.872Z,19.80
2023-03-17T07:33:22.797Z,20.14
2023-03-17T07:35:52.643Z,20.39
2023-03-17T07:38:21.996Z,20.82
2023-03-17T07:40:51.436Z,21.12
2023-03-17T07:43:20.730Z,21.10
2023-03-17T07:45:49.945Z,21.47
2023-03-17T07:48:19.692Z,22.09
2023-03-17T07:50:49.122Z,22.63
2023-03-17T07:53:19.390Z,23.14
2023-03-17T07:55:48.699Z,23.54
2023-03-17T07:58:18.312Z,24.19
2023-03-17T08:00:49.105Z,24.88
2023-03-17T08:03:19.937Z,25.47
2023-03-17T08:05:58.465Z,25.76
2023-03-17T08:08:29.009Z,25.85
2023-03-17T08:11:05.913Z,26.40
2023-03-17T08:13:35.806Z,26.60
2023-03-17T08:16:05.306Z,26.86
2023-03-17T08:18:34.920Z,27.42
2023-03-17T08:21:05.000Z,27.61
2023-03-17T08:23:36.038Z,28.05
2023-03-17T08:26:05.958Z,28.46
2023-03-17T08:28:36.630Z,28.47
2023-03-17T08:31:14.701Z,28.89
2023-03-17T08:33:46.807Z,29.17
2023-03-17T08:36:17.917Z,29.33
2023-03-17T08:38:48.806Z,29.59
2023-03-17T08:41:24.802Z,30.07
2023-03-17T08:43:54.986Z,30.23
2023-03-17T08:46:30.300Z,30.58
2023-03-17T08:49:01.950Z,31.18
2023-03-17T08:51:34.755Z,31.64
2023-03-17T08:54:06.310Z,31.75
2023-03-17T08:56:35.403Z,31.85
2023-03-17T08:59:07.906Z,32.22
2023-03-17T09:01:37.980Z,31.78
2023-03-17T09:04:07.910Z,31.93
2023-03-17T09:06:39.649Z,32.37
2023-03-17T09:09:10.834Z,32.89
2023-03-17T09:11:40.988Z,33.23
2023-03-17T09:14:11.731Z,33.22
2023-03-17T09:16:41.298Z,32.60
2023-03-17T09:19:10.718Z,32.32
2023-03-17T09:21:39.929Z,32.23
2023-03-17T09:24:09.216Z,32.56
2023-03-17T09:26:38.355Z,33.15
2023-03-17T09:29:07.876Z,33.39
2023-03-17T09:31:37.239Z,32.74
2023-03-17T09:34:06.803Z,32.19
2023-03-17T09:36:35.778Z,32.21
2023-03-17T09:39:05.174Z,32.11
2023-03-17T09:41:51.836Z,31.91
2023-03-17T09:44:45.471Z,31.44
2023-03-17T09:47:48.406Z,31.55
2023-03-17T09:50:25.950Z,31.59
2023-03-17T09:52:58.916Z,32.02
2023-03-17T09:55:33.294Z,32.32
2023-03-17T09:58:04.122Z,32.85
2023-03-17T10:00:33.538Z,33.47
2023-03-17T10:03:02.927Z,33.74
2023-03-17T10:05:36.760Z,34.12
2023-03-17T10:08:31.524Z,34.65
2023-03-17T10:11:43.692Z,34.71
2023-03-17T10:14:34.859Z,34.46
2023-03-17T10:17:24.247Z,35.04
2023-03-17T10:20:05.817Z,35.02
2023-03-17T10:22:54.151Z,34.98
2023-03-17T10:25:35.625Z,35.33
2023-03-17T10:28:09.254Z,35.21
2023-03-17T10:30:39.790Z,35.27
2023-03-17T10:33:10.029Z,35.84
2023-03-17T10:35:40.335Z,36.28
2023-03-17T10:38:22.290Z,36.48
2023-03-17T10:41:06.552Z,36.68
2023-03-17T10:43:42.702Z,36.67
2023-03-17T10:46:53.002Z,36.90
2023-03-17T10:49:25.048Z,36.99
2023-03-17T10:51:55.995Z,37.88
2023-03-17T10:54:29.358Z,38.54
2023-03-17T10:57:09.948Z,38.90
2023-03-17T10:59:45.176Z,39.16
2023-03-17T11:02:21.849Z,38.93
2023-03-17T11:05:00.400Z,38.06
2023-03-17T11:07:50.631Z,37.57
2023-03-17T11:10:26.375Z,37.91
2023-03-17T11:13:02.182Z,38.40
2023-03-17T11:15:41.954Z,38.89
2023-03-17T11:18:37.542Z,39.05
2023-03-17T11:21:13.143Z,38.79
2023-03-17T11:23:43.101Z,38.92
2023-03-17T11:26:43.676Z,39.09
2023-03-17T11:29:12.805Z,38.88
2023-03-17T11:31:44.764Z,39.63
2023-03-17T11:34:36.817Z,39.76
2023-03-17T11:37:17.709Z,39.36
2023-03-17T11:40:03.615Z,39.22
2023-03-17T11:42:33.134Z,38.57
2023-03-17T11:45:15.815Z,38.87
2023-03-17T11:48:07.699Z,38.92
2023-03-17T11:50:39.749Z,38.67
2023-03-17T11:53:19.895Z,38.61
2023-03-17T11:55:58.309Z,39.01
2023-03-17T11:58:36.195Z,38.80
2023-03-17T12:01:12.643Z,39.34
2023-03-17T12:03:47.878Z,39.28
2023-03-17T12:06:22.833Z,38.95
2023-03-17T12:09:01.048Z,38.47
2023-03-17T12:11:36.444Z,38.39
2023-03-17T12:14:29.141Z,38.68
2023-03-17T12:17:06.610Z,38.68
2023-03-17T12:19:42.905Z,38.68
2023-03-17T12:22:33.347Z,38.35
2023-03-17T12:25:29.397Z,37.89
2023-03-17T12:28:09.522Z,37.62
2023-03-17T12:30:56.635Z,37.79
2023-03-17T12:34:02.179Z,38.23
2023-03-17T12:36:32.600Z,38.20
2023-03-17T12:39:09.904Z,38.29
2023-03-17T12:42:19.111Z,38.44
2023-03-17T12:45:09.988Z,38.20
2023-03-17T12:48:30.183Z,37.97
2023-03-17T12:51:18.431Z,38.30
2023-03-17T12:53:50.244Z,38.65
2023-03-17T12:56:21.532Z,39.30
2023-03-17T12:58:53.667Z,39.56
2023-03-17T13:02:49.195Z,39.72
2023-03-17T13:05:29.666Z,39.34
2023-03-17T13:08:02.937Z,39.13
2023-03-17T13:10:44.280Z,38.73
2023-03-17T13:13:41.121Z,38.38
2023-03-17T13:16:41.946Z,38.48
2023-03-17T13:19:21.618Z,38.76
2023-03-17T13:22:06.037Z,38.37
2023-03-17T13:24:49.463Z,37.52
2023-03-17T13:27:54.735Z,37.21
2023-03-17T13:30:26.955Z,36.88
2023-03-17T13:33:23.801Z,37.11
2023-03-17T13:35:53.103Z,36.78
2023-03-17T13:38:45.405Z,36.76
2023-03-17T13:41:42.283Z,37.05
2023-03-17T13:44:15.733Z,37.23
2023-03-17T13:46:47.693Z,37.47
2023-03-17T13:49:26.121Z,37.53
2023-03-17T13:52:13.232Z,37.17
2023-03-17T13:54:51.690Z,36.61
2023-03-17T13:57:36.958Z,36.11
2023-03-17T14:00:23.532Z,35.78
2023-03-17T14:07:16.903Z,35.61
2023-03-17T14:09:47.054Z,35.71
2023-03-17T14:12:29.099Z,35.95
2023-03-17T14:15:14.077Z,35.54
2023-03-17T14:17:57.033Z,35.49
2023-03-17T14:20:28.402Z,35.03
2023-03-17T14:24:14.989Z,34.91
2023-03-17T14:26:45.282Z,35.03
2023-03-17T14:29:19.051Z,35.23
2023-03-17T14:31:54.069Z,35.09
2023-03-17T14:34:25.507Z,34.94
2023-03-17T14:37:00.053Z,34.61
2023-03-17T14:39:30.692Z,34.02
2023-03-17T14:42:07.956Z,33.66
2023-03-17T14:44:43.372Z,33.64
2023-03-17T14:47:21.350Z,33.72
2023-03-17T14:49:54.948Z,33.85
2023-03-17T14:52:33.137Z,33.92
2023-03-17T14:55:02.957Z,33.57
2023-03-17T14:57:33.591Z,33.43
2023-03-17T15:00:26.564Z,33.00
2023-03-17T15:02:57.285Z,32.45
2023-03-17T15:06:37.591Z,32.20
2023-03-17T15:09:20.030Z,32.16
2023-03-17T15:11:49.916Z,32.35
2023-03-17T15:14:22.165Z,32.38
2023-03-17T15:16:54.058Z,32.06
2023-03-17T15:19:31.239Z,31.55
2023-03-17T15:22:04.949Z,31.41
2023-03-17T15:24:41.546Z,31.40
2023-03-17T15:27:19.214Z,31.40
2023-03-17T15:29:48.772Z,31.35
2023-03-17T15:32:24.119Z,31.37
2023-03-17T15:34:57.495Z,31.34
2023-03-17T15:37:28.076Z,31.19
2023-03-17T15:39:57.806Z,30.95
2023-03-17T15:42:33.122Z,30.63
2023-03-17T15:45:03.223Z,30.41
2023-03-17T15:47:37.097Z,30.40
2023-03-17T15:50:17.554Z,30.12
2023-03-17T15:52:47.033Z,29.87
2023-03-17T15:55:23.776Z,29.80
2023-03-17T15:57:55.972Z,29.65
2023-03-17T16:00:30.404Z,29.41
2023-03-17T16:03:19.600Z,29.11
2023-03-17T16:05:49.048Z,28.77
2023-03-17T16:08:18.552Z,28.44
2023-03-17T16:10:48.057Z,28.14
2023-03-17T16:13:17.375Z,27.91
2023-03-17T16:15:54.631Z,27.57
2023-03-17T16:18:38.742Z,27.23
2023-03-17T16:21:08.892Z,26.84
2023-03-17T16:23:38.630Z,26.66
2023-03-17T16:26:15.500Z,26.59
2023-03-17T16:28:46.621Z,26.42
2023-03-17T16:31:18.458Z,26.13
2023-03-17T16:33:48.775Z,25.77
2023-03-17T16:36:20.725Z,25.45
2023-03-17T16:38:51.613Z,25.23
2023-03-17T16:41:27.872Z,25.05
2023-03-17T16:44:02.815Z,24.84
2023-03-17T16:46:35.776Z,24.63
2023-03-17T16:49:06.252Z,24.30
2023-03-17T16:51:36.097Z,23.99
2023-03-17T16:54:06.457Z,23.68
2023-03-17T16:56:39.742Z,23.41
2023-03-17T16:59:19.555Z,23.09
2023-03-17T17:02:21.114Z,22.76
2023-03-17T17:04:51.273Z,22.40
2023-03-17T17:07:21.782Z,22.13
2023-03-17T17:09:51.703Z,21.87
2023-03-17T17:12:21.693Z,21.63
2023-03-17T17:14:50.936Z,21.38
2023-03-17T17:17:20.726Z,21.13
2023-03-17T17:19:50.518Z,20.90
2023-03-17T17:22:20.297Z,20.65
2023-03-17T17:24:50.753Z,20.38
2023-03-17T17:27:20.833Z,20.13
2023-03-17T17:29:50.912Z,19.82
2023-03-17T17:32:23.755Z,19.51
2023-03-17T17:34:53.486Z,19.22
2023-03-17T17:37:22.900Z,18.92
2023-03-17T17:39:53.838Z,18.59
2023-03-17T17:42:23.301Z,18.31
2023-03-17T17:44:52.390Z,18.00
2023-03-17T17:47:21.892Z,17.84
2023-03-17T17:49:52.247Z,17.61
2023-03-17T17:52:21.744Z,17.47
2023-03-17T17:54:51.705Z,17.39
2023-03-17T17:57:21.229Z,17.29
2023-03-17T17:59:51.634Z,17.22
2023-03-17T18:02:21.224Z,17.16
2023-03-17T18:04:51.922Z,17.11
2023-03-17T18:07:21.791Z,17.06
2023-03-17T18:09:51.260Z,16.96
2023-03-17T18:12:20.612Z,16.79
2023-03-17T18:14:50.146Z,16.65
2023-03-17T18:17:22.473Z,16.53
2023-03-17T18:19:56.081Z,16.43
2023-03-17T18:22:25.009Z,16.36
2023-03-17T18:24:54.533Z,16.28
2023-03-17T18:27:24.109Z,16.12
2023-03-17T18:29:55.425Z,15.98
2023-03-17T18:32:25.853Z,15.86
2023-03-17T18:34:55.933Z,15.76
2023-03-17T18:37:25.614Z,15.59
2023-03-17T18:40:12.002Z,15.48
2023-03-17T18:42:43.536Z,15.29
2023-03-17T18:45:12.835Z,15.21
2023-03-17T18:47:42.472Z,15.11
2023-03-17T18:50:14.834Z,15.01
2023-03-17T18:52:45.534Z,14.91
2023-03-17T18:55:16.867Z,14.83
2023-03-17T18:57:46.988Z,14.73
2023-03-17T19:00:19.974Z,14.68
2023-03-17T19:02:49.227Z,14.60
2023-03-17T19:05:19.666Z,14.47
2023-03-17T19:07:49.340Z,14.28
2023-03-17T19:10:19.103Z,14.14
2023-03-17T19:12:48.421Z,14.03
2023-03-17T19:15:18.823Z,13.90
2023-03-17T19:17:48.527Z,13.77
2023-03-17T19:20:19.224Z,13.70
2023-03-17T19:22:48.645Z,13.68
2023-03-17T19:25:18.413Z,13.68
2023-03-17T19:27:47.797Z,13.61
2023-03-17T19:30:17.190Z,13.51
2023-03-17T19:32:47.181Z,13.47
2023-03-17T19:35:16.695Z,13.48
2023-03-17T19:37:47.471Z,13.50
2023-03-17T19:40:17.261Z,13.54
2023-03-17T19:42:47.268Z,13.55
2023-03-17T19:45:17.072Z,13.54
2023-03-17T19:47:47.672Z,13.52
2023-03-17T19:50:17.347Z,13.52
2023-03-17T19:52:46.918Z,13.45
2023-03-17T19:55:17.064Z,13.39
2023-03-17T19:57:46.195Z,13.37
2023-03-17T20:00:16.761Z,13.32
2023-03-17T20:02:46.874Z,13.32
2023-03-17T20:05:16.921Z,13.31
2023-03-17T20:07:47.461Z,13.26
2023-03-17T20:10:17.757Z,13.21
2023-03-17T20:12:48.072Z,13.15
2023-03-17T20:15:17.548Z,13.00
2023-03-17T20:17:47.146Z,12.85
2023-03-17T20:20:16.662Z,12.63
2023-03-17T20:22:46.578Z,12.48
2023-03-17T20:25:16.100Z,12.41
2023-03-17T20:27:45.543Z,12.33
2023-03-17T20:30:20.776Z,12.26
2023-03-17T20:32:51.518Z,12.15
2023-03-17T20:35:21.532Z,12.05
2023-03-17T20:37:53.304Z,12.03
2023-03-17T20:40:22.614Z,12.04
2023-03-17T20:42:52.949Z,11.98
2023-03-17T20:45:22.512Z,12.01
2023-03-17T20:47:52.250Z,11.97
2023-03-17T20:50:22.281Z,11.92
2023-03-17T20:52:52.924Z,11.86
2023-03-17T20:55:22.284Z,11.83
2023-03-17T20:57:52.314Z,11.76
2023-03-17T21:00:22.851Z,11.84
2023-03-17T21:02:52.489Z,11.83
2023-03-17T21:05:25.877Z,11.81
2023-03-17T21:07:57.851Z,11.78
2023-03-17T21:10:29.569Z,11.72
2023-03-17T21:12:58.810Z,11.67
2023-03-17T21:15:29.599Z,11.63
2023-03-17T21:18:01.202Z,11.48
2023-03-17T21:20:30.832Z,11.43
2023-03-17T21:23:01.086Z,11.44
2023-03-17T21:25:30.661Z,11.36
2023-03-17T21:28:00.749Z,11.35
2023-03-17T21:30:30.882Z,11.28
2023-03-17T21:33:01.502Z,11.18
2023-03-17T21:35:34.975Z,11.02
2023-03-17T21:38:04.416Z,10.94
2023-03-17T21:40:33.778Z,10.95
2023-03-17T21:43:03.447Z,10.89
2023-03-17T21:45:32.865Z,10.71
2023-03-17T21:48:02.701Z,10.67
2023-03-17T21:50:31.953Z,10.63
2023-03-17T21:53:02.343Z,10.67
2023-03-17T21:55:32.182Z,10.75
2023-03-17T21:58:03.023Z,10.79
2023-03-17T22:00:39.368Z,10.76
2023-03-17T22:03:14.242Z,10.73
2023-03-17T22:05:43.469Z,10.73
2023-03-17T22:08:13.667Z,10.86
2023-03-17T22:10:43.650Z,11.01
2023-03-17T22:13:13.293Z,11.09
2023-03-17T22:15:42.945Z,11.07
2023-03-17T22:18:12.545Z,11.01
2023-03-17T22:20:41.764Z,10.93
2023-03-17T22:23:11.283Z,10.83
2023-03-17T22:25:40.683Z,10.83
2023-03-17T22:28:10.000Z,10.80
2023-03-17T22:30:43.013Z,10.68
2023-03-17T22:33:13.431Z,10.57
2023-03-17T22:35:42.796Z,10.39
2023-03-17T22:38:13.679Z,10.31
2023-03-17T22:40:43.255Z,10.29
2023-03-17T22:43:13.337Z,10.36
2023-03-17T22:45:42.551Z,10.37
2023-03-17T22:48:12.348Z,10.35
2023-03-17T22:50:43.654Z,10.37
2023-03-17T22:53:13.448Z,10.40
2023-03-17T22:55:42.771Z,10.39
2023-03-17T22:58:12.190Z,10.42
2023-03-17T23:00:41.298Z,10.35
2023-03-17T23:03:10.639Z,10.26
2023-03-17T23:05:40.311Z,10.32
2023-03-17T23:08:09.403Z,10.34
2023-03-17T23:10:40.429Z,10.27
2023-03-17T23:13:09.615Z,10.10
2023-03-17T23:15:39.189Z,9.99
2023-03-17T23:18:09.521Z,9.99
2023-03-17T23:20:40.495Z,10.06
2023-03-17T23:23:12.052Z,10.10
2023-03-17T23:25:41.562Z,10.12
2023-03-17T23:28:11.316Z,10.13
2023-03-17T23:30:41.422Z,10.14
2023-03-17T23:33:10.832Z,10.13
2023-03-17T23:35:40.751Z,10.13
2023-03-17T23:38:09.881Z,10.07
2023-03-17T23:40:40.208Z,9.98
2023-03-17T23:43:10.002Z,9.88
2023-03-17T23:45:41.844Z,9.86
2023-03-17T23:48:12.462Z,9.86
2023-03-17T23:50:42.772Z,9.80
2023-03-17T23:53:12.308Z,9.70
2023-03-17T23:55:41.364Z,9.68
2023-03-17T23:58:10.203Z,9.71
